Time;durP1;ratioP1;P1;durP2;ratioP2;P2;SDS_P1;SDS_P2;PMS_P1;PMS_P2;Temp;Humidity;BMP_temperature;BMP_pressure;BME280_temperature;BME280_humidity;BME280_pressure;Samples;Min_cycle;Max_cycle;Signal;HPM_P1;HPM_P2
2022/05/06 00:01:44;;;;;;;0.10;0.10;;;;;;;;;;5076272;28;20063;-92
2022/05/06 00:04:10;;;;;;;0.10;0.10;;;;;;;;;;5059309;28;20059;-92
2022/05/06 00:06:36;;;;;;;0.10;0.10;;;;;;;;;;5059209;28;20445;-92
2022/05/06 00:09:02;;;;;;;0.10;0.10;;;;;;;;;;5059322;28;20032;-92
2022/05/06 00:11:28;;;;;;;0.10;0.10;;;;;;;;;;5059245;28;20043;-92
2022/05/06 00:13:54;;;;;;;0.10;0.10;;;;;;;;;;5059486;28;20043;-92
2022/05/06 00:16:20;;;;;;;0.10;0.10;;;;;;;;;;5059220;28;20116;-92
2022/05/06 00:18:46;;;;;;;0.10;0.10;;;;;;;;;;5059524;28;20044;-92
2022/05/06 00:21:12;;;;;;;0.10;0.10;;;;;;;;;;5075918;28;20040;-92
2022/05/06 00:23:38;;;;;;;0.10;0.10;;;;;;;;;;5059091;28;20051;-92
2022/05/06 00:26:04;;;;;;;0.10;0.10;;;;;;;;;;5058742;28;20476;-92
2022/05/06 00:28:31;;;;;;;0.10;0.10;;;;;;;;;;5058853;28;20123;-92
2022/05/06 00:30:57;;;;;;;0.10;0.10;;;;;;;;;;5075299;28;20132;-91
2022/05/06 00:33:26;;;;;;;0.20;0.20;;;;;;;;;;5058959;28;20040;-92
2022/05/06 00:35:55;;;;;;;0.10;0.10;;;;;;;;;;5075944;28;20044;-91
2022/05/06 00:38:21;;;;;;;0.15;0.15;;;;;;;;;;5075189;28;20064;-92
2022/05/06 00:40:47;;;;;;;0.10;0.10;;;;;;;;;;5059171;28;20063;-92
2022/05/06 00:43:13;;;;;;;0.10;0.10;;;;;;;;;;5058678;28;20514;-93
2022/05/06 00:45:45;;;;;;;0.10;0.10;;;;;;;;;;5059100;28;20349;-93
2022/05/06 00:48:12;;;;;;;0.43;0.20;;;;;;;;;;5076040;28;20066;-93
2022/05/06 00:50:38;;;;;;;0.20;0.20;;;;;;;;;;5058965;28;20118;-92
2022/05/06 00:53:06;;;;;;;0.10;0.10;;;;;;;;;;5058960;28;20044;-93
2022/05/06 00:55:33;;;;;;;0.10;0.10;;;;;;;;;;5058949;28;20044;-92
2022/05/06 00:57:59;;;;;;;0.10;0.10;;;;;;;;;;5058545;28;20040;-92
2022/05/06 01:00:25;;;;;;;0.25;0.25;;;;;;;;;;5058598;28;20429;-92
2022/05/06 01:02:50;;;;;;;0.10;0.10;;;;;;;;;;5075217;28;20052;-94
2022/05/06 01:05:17;;;;;;;0.10;0.10;;;;;;;;;;5058883;28;20079;-94
2022/05/06 01:07:44;;;;;;;0.10;0.10;;;;;;;;;;5059149;28;20177;-94
2022/05/06 01:10:11;;;;;;;0.10;0.10;;;;;;;;;;5058701;28;20067;-92
2022/05/06 01:12:37;;;;;;;0.10;0.10;;;;;;;;;;5059094;28;20125;-94
2022/05/06 01:15:12;;;;;;;0.10;0.10;;;;;;;;;;5058626;28;20044;-93
2022/05/06 01:17:38;;;;;;;0.10;0.10;;;;;;;;;;5059157;28;20185;-93
2022/05/06 01:20:04;;;;;;;0.10;0.10;;;;;;;;;;5058719;28;20097;-95
2022/05/06 01:22:30;;;;;;;0.10;0.10;;;;;;;;;;5075029;28;20048;-96
2022/05/06 01:24:56;;;;;;;0.10;0.10;;;;;;;;;;5058594;28;20131;-95
2022/05/06 01:27:23;;;;;;;0.10;0.10;;;;;;;;;;5058347;28;20032;-93
2022/05/06 01:29:49;;;;;;;0.10;0.10;;;;;;;;;;5058634;28;20036;-93
2022/05/06 01:32:17;;;;;;;0.10;0.10;;;;;;;;;;5058409;28;20050;-94
2022/05/06 01:34:43;;;;;;;0.20;0.20;;;;;;;;;;5075272;28;20040;-93
2022/05/06 01:37:09;;;;;;;0.10;0.10;;;;;;;;;;5058521;28;20382;-92
2022/05/06 01:39:35;;;;;;;0.10;0.10;;;;;;;;;;5058505;28;20036;-93
2022/05/06 01:42:04;;;;;;;0.10;0.10;;;;;;;;;;5075127;28;20040;-92
2022/05/06 01:44:31;;;;;;;0.10;0.10;;;;;;;;;;5058430;28;20056;-92
2022/05/06 01:46:58;;;;;;;0.10;0.10;;;;;;;;;;5058423;28;20047;-93
2022/05/06 01:49:24;;;;;;;0.10;0.10;;;;;;;;;;5058650;28;20040;-92
2022/05/06 01:51:50;;;;;;;0.10;0.10;;;;;;;;;;5078479;28;20039;-94
2022/05/06 01:54:16;;;;;;;0.10;0.10;;;;;;;;;;5061803;28;20568;-91
2022/05/06 01:56:43;;;;;;;0.10;0.10;;;;;;;;;;5078280;28;20068;-92
2022/05/06 01:59:09;;;;;;;0.30;0.30;;;;;;;;;;5061577;28;20089;-91
2022/05/06 02:01:35;;;;;;;0.10;0.10;;;;;;;;;;5061438;28;20378;-91
2022/05/06 02:06:46;;;;;;;0.10;0.10;;;;;;;;;;5080949;28;20035;-91
2022/05/06 02:09:12;;;;;;;0.10;0.10;;;;;;;;;;5095127;28;20065;-91
2022/05/06 02:11:38;;;;;;;0.10;0.10;;;;;;;;;;5061513;28;20150;-92
2022/05/06 02:14:05;;;;;;;0.10;0.10;;;;;;;;;;5061405;28;20086;-92
2022/05/06 02:16:31;;;;;;;0.10;0.10;;;;;;;;;;5061181;28;20044;-92
2022/05/06 02:18:57;;;;;;;0.10;0.10;;;;;;;;;;5061362;28;20040;-91
2022/05/06 02:21:23;;;;;;;0.10;0.10;;;;;;;;;;5094832;28;20047;-92
2022/05/06 02:23:49;;;;;;;0.30;0.30;;;;;;;;;;5078122;28;20072;-92
2022/05/06 02:26:15;;;;;;;0.20;0.20;;;;;;;;;;5061690;28;20089;-92
2022/05/06 02:28:41;;;;;;;0.10;0.10;;;;;;;;;;5061845;28;20032;-92
2022/05/06 02:33:52;;;;;;;0.10;0.10;;;;;;;;;;5080379;28;20055;-92
2022/05/06 02:36:18;;;;;;;0.10;0.10;;;;;;;;;;5078052;28;20039;-92
2022/05/06 02:38:44;;;;;;;0.10;0.10;;;;;;;;;;5094438;28;20534;-92
2022/05/06 02:41:10;;;;;;;0.10;0.10;;;;;;;;;;5061191;28;20062;-91
2022/05/06 02:43:37;;;;;;;0.10;0.10;;;;;;;;;;5077255;28;20039;-90
2022/05/06 02:46:03;;;;;;;0.10;0.10;;;;;;;;;;5060363;28;20036;-90
2022/05/06 02:48:29;;;;;;;0.13;0.13;;;;;;;;;;5077288;28;20040;-91
2022/05/06 02:50:55;;;;;;;0.10;0.10;;;;;;;;;;5077239;28;20036;-92
2022/05/06 02:53:21;;;;;;;0.10;0.10;;;;;;;;;;5060716;28;20044;-92
2022/05/06 02:55:47;;;;;;;0.10;0.10;;;;;;;;;;5060789;28;20135;-92
2022/05/06 02:58:13;;;;;;;0.20;0.20;;;;;;;;;;5060548;28;20139;-91
2022/05/06 03:00:40;;;;;;;0.10;0.10;;;;;;;;;;5060541;28;20039;-93
2022/05/06 03:03:06;;;;;;;0.10;0.10;;;;;;;;;;5077192;28;20059;-92
2022/05/06 03:05:33;;;;;;;0.10;0.10;;;;;;;;;;5060491;28;20044;-93
2022/05/06 03:07:59;;;;;;;0.10;0.10;;;;;;;;;;5077003;28;20081;-92
2022/05/06 03:10:25;;;;;;;0.10;0.10;;;;;;;;;;5077449;28;20036;-93
2022/05/06 03:12:55;;;;;;;0.20;0.20;;;;;;;;;;5077146;28;20036;-92
2022/05/06 03:15:21;;;;;;;0.10;0.10;;;;;;;;;;5077837;28;20043;-92
2022/05/06 03:17:48;;;;;;;0.10;0.10;;;;;;;;;;5060662;28;20040;-93
2022/05/06 03:20:14;;;;;;;0.10;0.10;;;;;;;;;;5077241;28;20054;-93
2022/05/06 03:22:43;;;;;;;0.10;0.10;;;;;;;;;;5060538;28;20044;-91
2022/05/06 03:25:12;;;;;;;0.10;0.10;;;;;;;;;;5060513;28;20032;-92
2022/05/06 03:30:22;;;;;;;0.10;0.10;;;;;;;;;;5080118;28;20044;-92
2022/05/06 03:32:51;;;;;;;0.10;0.10;;;;;;;;;;5061601;28;20044;-92
2022/05/06 03:35:18;;;;;;;0.15;0.15;;;;;;;;;;5061753;28;20098;-95
2022/05/06 03:37:45;;;;;;;0.10;0.10;;;;;;;;;;5063355;28;20040;-93
2022/05/06 03:40:14;;;;;;;0.10;0.10;;;;;;;;;;5079971;28;20040;-92
2022/05/06 03:42:40;;;;;;;0.10;0.10;;;;;;;;;;5083353;28;20031;-91
2022/05/06 03:45:07;;;;;;;0.10;0.10;;;;;;;;;;5073185;28;20526;-92
2022/05/06 03:47:34;;;;;;;0.10;0.10;;;;;;;;;;5061759;28;20093;-93
2022/05/06 03:52:45;;;;;;;0.10;0.10;;;;;;;;;;5103004;28;20028;-92
2022/05/06 03:55:11;;;;;;;0.10;0.10;;;;;;;;;;5082542;28;20048;-93
2022/05/06 03:57:37;;;;;;;0.10;0.10;;;;;;;;;;5076477;28;20394;-93
2022/05/06 04:00:04;;;;;;;0.10;0.10;;;;;;;;;;5076161;28;20173;-92
2022/05/06 04:02:30;;;;;;;0.10;0.10;;;;;;;;;;5075828;28;20077;-92
2022/05/06 04:04:56;;;;;;;0.10;0.10;;;;;;;;;;5075961;28;20120;-92
2022/05/06 04:07:25;;;;;;;0.10;0.10;;;;;;;;;;5059819;28;20032;-94
2022/05/06 04:09:51;;;;;;;0.10;0.10;;;;;;;;;;5054916;28;20037;-93
2022/05/06 04:12:17;;;;;;;0.10;0.10;;;;;;;;;;5055397;28;20066;-93
2022/05/06 04:14:43;;;;;;;0.13;0.13;;;;;;;;;;5059124;28;20032;-94
2022/05/06 04:17:09;;;;;;;0.10;0.10;;;;;;;;;;5059076;28;20135;-93
2022/05/06 04:19:35;;;;;;;0.10;0.10;;;;;;;;;;5058488;28;20040;-94
2022/05/06 04:24:48;;;;;;;0.10;0.10;;;;;;;;;;5078328;28;20616;-93
2022/05/06 04:27:15;;;;;;;0.10;0.10;;;;;;;;;;5058856;28;20094;-94
2022/05/06 04:29:41;;;;;;;0.10;0.10;;;;;;;;;;5058938;28;20044;-93
2022/05/06 04:32:08;;;;;;;0.10;0.10;;;;;;;;;;5058924;28;20097;-94
2022/05/06 04:34:34;;;;;;;0.10;0.10;;;;;;;;;;5059125;28;20075;-93
2022/05/06 04:37:01;;;;;;;0.10;0.10;;;;;;;;;;5092812;28;20046;-94
2022/05/06 04:39:26;;;;;;;0.10;0.10;;;;;;;;;;5059183;28;20384;-94
2022/05/06 04:41:53;;;;;;;0.10;0.10;;;;;;;;;;5075608;28;20032;-94
2022/05/06 04:44:19;;;;;;;0.10;0.10;;;;;;;;;;5056963;28;20427;-93
2022/05/06 04:46:46;;;;;;;0.10;0.10;;;;;;;;;;5052804;28;20036;-94
2022/05/06 04:49:12;;;;;;;0.10;0.10;;;;;;;;;;5039891;28;20503;-94
2022/05/06 04:51:38;;;;;;;0.10;0.10;;;;;;;;;;5042984;28;20556;-93
2022/05/06 04:54:06;;;;;;;0.10;0.10;;;;;;;;;;5048517;28;20098;-93
2022/05/06 04:56:32;;;;;;;0.10;0.10;;;;;;;;;;5039049;28;20045;-92
2022/05/06 04:58:58;;;;;;;0.10;0.10;;;;;;;;;;5055433;28;20036;-95
2022/05/06 05:01:24;;;;;;;0.10;0.10;;;;;;;;;;5038913;28;20085;-93
2022/05/06 05:03:50;;;;;;;0.10;0.10;;;;;;;;;;5038700;28;20469;-93
2022/05/06 05:06:16;;;;;;;0.13;0.13;;;;;;;;;;5038694;28;20051;-94
2022/05/06 05:08:42;;;;;;;0.10;0.10;;;;;;;;;;5038743;28;20032;-93
2022/05/06 05:11:08;;;;;;;0.10;0.10;;;;;;;;;;5055216;28;20468;-93
2022/05/06 05:13:34;;;;;;;0.10;0.10;;;;;;;;;;5038852;28;20041;-92
2022/05/06 05:16:01;;;;;;;0.10;0.10;;;;;;;;;;5038594;28;20205;-93
2022/05/06 05:18:27;;;;;;;0.20;0.20;;;;;;;;;;5055207;28;20443;-92
2022/05/06 05:20:52;;;;;;;0.10;0.10;;;;;;;;;;5058989;28;20032;-93
2022/05/06 05:23:18;;;;;;;0.10;0.10;;;;;;;;;;5057908;28;20340;-92
2022/05/06 05:25:44;;;;;;;0.10;0.10;;;;;;;;;;5061723;28;20041;-93
2022/05/06 05:28:10;;;;;;;0.10;0.10;;;;;;;;;;5062328;28;20180;-94
2022/05/06 05:30:36;;;;;;;0.10;0.10;;;;;;;;;;5062307;28;20587;-93
2022/05/06 05:33:04;;;;;;;0.10;0.10;;;;;;;;;;5078820;28;20036;-92
2022/05/06 05:35:31;;;;;;;0.20;0.20;;;;;;;;;;5062040;28;20039;-91
2022/05/06 05:37:57;;;;;;;0.35;0.35;;;;;;;;;;5065074;28;20127;-92
2022/05/06 05:40:23;;;;;;;0.10;0.10;;;;;;;;;;5065517;28;20139;-92
2022/05/06 05:42:49;;;;;;;0.10;0.10;;;;;;;;;;5049280;28;20516;-92
2022/05/06 05:50:45;;;;;;;0.10;0.10;;;;;;;;;;5081822;28;20390;-92
2022/05/06 05:53:11;;;;;;;0.10;0.10;;;;;;;;;;5062189;28;20062;-93
2022/05/06 05:55:37;;;;;;;0.90;0.30;;;;;;;;;;5061683;28;20099;-93
2022/05/06 05:58:03;;;;;;;0.10;0.10;;;;;;;;;;5062206;28;20040;-93
2022/05/06 06:00:29;;;;;;;0.10;0.10;;;;;;;;;;5061991;28;20040;-93
2022/05/06 06:02:56;;;;;;;0.47;0.47;;;;;;;;;;5061752;28;20131;-93
2022/05/06 06:05:22;;;;;;;0.10;0.10;;;;;;;;;;5061938;28;20110;-93
2022/05/06 06:07:49;;;;;;;0.10;0.10;;;;;;;;;;5062046;28;20039;-92
2022/05/06 06:10:15;;;;;;;0.30;0.13;;;;;;;;;;5078936;28;20051;-92
2022/05/06 06:12:41;;;;;;;0.10;0.10;;;;;;;;;;5062489;28;20044;-92
2022/05/06 06:15:07;;;;;;;0.20;0.20;;;;;;;;;;5061606;28;20039;-92
2022/05/06 06:17:33;;;;;;;0.10;0.10;;;;;;;;;;5078417;28;20135;-95
2022/05/06 06:20:02;;;;;;;0.10;0.10;;;;;;;;;;5078719;28;20040;-94
2022/05/06 06:22:28;;;;;;;0.10;0.10;;;;;;;;;;5061611;28;20556;-93
2022/05/06 06:24:55;;;;;;;0.10;0.10;;;;;;;;;;5061461;28;20036;-94
2022/05/06 06:27:25;;;;;;;0.30;0.30;;;;;;;;;;5061740;28;20036;-92
2022/05/06 06:29:51;;;;;;;0.10;0.10;;;;;;;;;;5078231;28;20177;-94
2022/05/06 06:32:17;;;;;;;0.63;0.30;;;;;;;;;;5061150;28;20040;-95
2022/05/06 06:34:43;;;;;;;0.10;0.10;;;;;;;;;;5060939;28;20032;-93
2022/05/06 06:37:09;;;;;;;0.17;0.17;;;;;;;;;;5060770;28;20042;-92
2022/05/06 06:39:36;;;;;;;0.10;0.10;;;;;;;;;;5078744;28;20555;-92
2022/05/06 06:42:02;;;;;;;0.10;0.10;;;;;;;;;;5061019;28;20032;-92
2022/05/06 06:44:28;;;;;;;0.38;0.38;;;;;;;;;;5060868;28;20036;-93
2022/05/06 06:46:55;;;;;;;0.10;0.10;;;;;;;;;;5060824;28;20043;-93
2022/05/06 06:49:21;;;;;;;0.10;0.10;;;;;;;;;;5060767;28;20036;-91
2022/05/06 06:51:47;;;;;;;0.10;0.10;;;;;;;;;;5060622;28;20474;-91
2022/05/06 06:54:13;;;;;;;0.40;0.40;;;;;;;;;;5060431;28;20142;-91
2022/05/06 06:56:39;;;;;;;2.72;0.45;;;;;;;;;;5060023;28;20048;-92
2022/05/06 06:59:05;;;;;;;0.10;0.10;;;;;;;;;;5077168;28;20044;-90
2022/05/06 07:01:33;;;;;;;0.10;0.10;;;;;;;;;;5076678;28;20487;-88
2022/05/06 07:04:00;;;;;;;0.10;0.10;;;;;;;;;;5060103;28;20052;-91
2022/05/06 07:11:57;;;;;;;0.10;0.10;;;;;;;;;;5079181;28;20046;-89
2022/05/06 07:14:25;;;;;;;0.10;0.10;;;;;;;;;;5059661;28;20051;-89
2022/05/06 07:16:52;;;;;;;0.15;0.15;;;;;;;;;;5059548;28;20043;-89
2022/05/06 07:19:18;;;;;;;0.10;0.10;;;;;;;;;;5059611;28;20040;-89
2022/05/06 07:21:44;;;;;;;0.10;0.10;;;;;;;;;;5076052;28;20047;-89
2022/05/06 07:24:10;;;;;;;0.10;0.10;;;;;;;;;;5076109;28;20486;-89
2022/05/06 07:26:36;;;;;;;0.10;0.10;;;;;;;;;;5093055;28;20033;-91
2022/05/06 07:29:02;;;;;;;0.10;0.10;;;;;;;;;;5076579;28;20101;-91
2022/05/06 07:31:28;;;;;;;0.10;0.10;;;;;;;;;;5059334;28;20032;-94
2022/05/06 07:33:55;;;;;;;0.10;0.10;;;;;;;;;;5076659;28;20043;-93
2022/05/06 07:36:23;;;;;;;0.10;0.10;;;;;;;;;;5076420;28;20418;-90
2022/05/06 07:38:49;;;;;;;0.10;0.10;;;;;;;;;;5059843;28;20050;-92
2022/05/06 07:41:15;;;;;;;0.10;0.10;;;;;;;;;;5076405;28;20048;-93
2022/05/06 07:43:41;;;;;;;0.20;0.20;;;;;;;;;;5059409;28;20059;-92
2022/05/06 07:46:09;;;;;;;0.10;0.10;;;;;;;;;;5075939;28;20040;-91
2022/05/06 07:48:35;;;;;;;0.10;0.10;;;;;;;;;;5075656;28;20441;-90
2022/05/06 07:51:01;;;;;;;0.10;0.10;;;;;;;;;;5059523;28;20032;-92
2022/05/06 07:53:28;;;;;;;0.10;0.10;;;;;;;;;;5076791;28;20036;-93
2022/05/06 07:55:53;;;;;;;0.10;0.10;;;;;;;;;;5061106;28;20126;-92
2022/05/06 07:58:19;;;;;;;0.10;0.10;;;;;;;;;;5076936;28;20133;-91
2022/05/06 08:00:45;;;;;;;0.10;0.10;;;;;;;;;;5098106;28;20028;-91
2022/05/06 08:05:59;;;;;;;0.10;0.10;;;;;;;;;;5079322;28;20036;-93
2022/05/06 08:08:30;;;;;;;0.20;0.20;;;;;;;;;;5074893;28;20040;-91
2022/05/06 08:10:56;;;;;;;0.10;0.10;;;;;;;;;;5080208;28;20048;-90
2022/05/06 08:13:22;;;;;;;0.10;0.10;;;;;;;;;;5082714;28;20399;-88
2022/05/06 08:15:49;;;;;;;0.10;0.10;;;;;;;;;;5058834;28;20039;-90
2022/05/06 08:18:15;;;;;;;0.10;0.10;;;;;;;;;;5059299;28;20046;-93
2022/05/06 08:20:41;;;;;;;0.10;0.10;;;;;;;;;;5075974;28;20040;-92
2022/05/06 08:23:08;;;;;;;0.10;0.10;;;;;;;;;;5057158;28;20043;-90
2022/05/06 08:25:34;;;;;;;0.40;0.40;;;;;;;;;;5075493;28;20110;-91
2022/05/06 08:28:01;;;;;;;0.10;0.10;;;;;;;;;;5074952;28;20051;-90
2022/05/06 08:30:27;;;;;;;0.10;0.10;;;;;;;;;;5058342;28;20066;-90
2022/05/06 08:32:53;;;;;;;0.10;0.10;;;;;;;;;;5074842;28;20089;-90
2022/05/06 08:35:19;;;;;;;0.20;0.20;;;;;;;;;;5058204;28;20036;-91
2022/05/06 08:37:46;;;;;;;0.10;0.10;;;;;;;;;;5074812;28;20064;-91
2022/05/06 08:40:18;;;;;;;0.10;0.10;;;;;;;;;;5058002;28;20098;-90
2022/05/06 08:42:44;;;;;;;0.10;0.10;;;;;;;;;;5058467;28;20040;-93
2022/05/06 08:50:51;;;;;;;0.10;0.10;;;;;;;;;;5077939;28;20040;-93
2022/05/06 08:53:17;;;;;;;0.20;0.20;;;;;;;;;;5059814;28;20516;-92
2022/05/06 08:55:43;;;;;;;0.10;0.10;;;;;;;;;;5074968;28;20048;-92
2022/05/06 08:58:09;;;;;;;0.20;0.20;;;;;;;;;;5075576;28;20042;-95
2022/05/06 09:00:35;;;;;;;0.57;0.57;;;;;;;;;;5058440;28;20545;-88
2022/05/06 09:03:01;;;;;;;0.10;0.10;;;;;;;;;;5091380;28;20056;-94
2022/05/06 09:05:27;;;;;;;0.10;0.10;;;;;;;;;;5058519;28;20134;-94
2022/05/06 09:08:00;;;;;;;0.10;0.10;;;;;;;;;;5058427;28;20525;-94
2022/05/06 09:10:26;;;;;;;0.20;0.20;;;;;;;;;;5058662;28;20219;-94
2022/05/06 09:12:56;;;;;;;0.10;0.10;;;;;;;;;;5058392;28;20044;-93
2022/05/06 09:18:09;;;;;;;0.10;0.10;;;;;;;;;;5078189;28;20044;-93
2022/05/06 09:20:35;;;;;;;0.15;0.15;;;;;;;;;;5058633;28;20036;-93
2022/05/06 09:23:18;;;;;;;0.10;0.10;;;;;;;;;;5058087;28;20043;-93
2022/05/06 09:25:49;;;;;;;0.20;0.20;;;;;;;;;;5058268;28;20558;-93
2022/05/06 09:28:32;;;;;;;0.10;0.10;;;;;;;;;;5059159;28;20123;-94
2022/05/06 09:31:06;;;;;;;0.22;0.22;;;;;;;;;;5058702;28;20047;-93
2022/05/06 09:33:33;;;;;;;0.10;0.10;;;;;;;;;;5058373;28;20518;-94
2022/05/06 09:36:20;;;;;;;0.10;0.10;;;;;;;;;;5058277;28;20395;-93
2022/05/06 09:39:14;;;;;;;0.30;0.30;;;;;;;;;;5058526;28;20063;-93
2022/05/06 09:41:41;;;;;;;0.20;0.20;;;;;;;;;;5072797;28;20449;-92
2022/05/06 09:44:07;;;;;;;0.10;0.10;;;;;;;;;;5058212;28;20077;-93
2022/05/06 09:46:33;;;;;;;0.10;0.10;;;;;;;;;;5058320;28;20440;-94
2022/05/06 09:49:00;;;;;;;0.20;0.20;;;;;;;;;;5057844;28;20036;-94
2022/05/06 09:51:26;;;;;;;0.22;0.22;;;;;;;;;;5058012;28;20127;-92
2022/05/06 09:53:54;;;;;;;0.30;0.30;;;;;;;;;;5058263;28;20036;-94
2022/05/06 09:56:20;;;;;;;0.20;0.20;;;;;;;;;;5057777;28;20040;-93
2022/05/06 09:58:46;;;;;;;0.10;0.10;;;;;;;;;;5074751;28;20044;-95
2022/05/06 10:01:16;;;;;;;0.10;0.10;;;;;;;;;;5057928;28;20047;-93
2022/05/06 10:03:42;;;;;;;0.10;0.10;;;;;;;;;;5057684;28;20054;-92
2022/05/06 10:06:11;;;;;;;0.22;0.22;;;;;;;;;;5058252;28;20208;-94
2022/05/06 10:08:38;;;;;;;0.20;0.20;;;;;;;;;;5058054;28;20051;-94
2022/05/06 10:11:04;;;;;;;0.10;0.10;;;;;;;;;;5059986;28;20483;-94
2022/05/06 10:13:30;;;;;;;0.20;0.20;;;;;;;;;;5061422;28;20040;-94
2022/05/06 10:15:57;;;;;;;0.20;0.20;;;;;;;;;;5062369;28;20040;-93
2022/05/06 10:18:32;;;;;;;0.10;0.10;;;;;;;;;;5062884;28;20036;-94
2022/05/06 10:20:59;;;;;;;0.10;0.10;;;;;;;;;;5078422;28;20051;-94
2022/05/06 10:23:42;;;;;;;0.10;0.10;;;;;;;;;;5063927;28;20127;-93
2022/05/06 10:26:11;;;;;;;0.20;0.20;;;;;;;;;;5065479;28;20080;-94
2022/05/06 10:34:23;;;;;;;0.10;0.10;;;;;;;;;;5094596;28;20505;-95
2022/05/06 10:36:49;;;;;;;0.10;0.10;;;;;;;;;;5062630;28;20043;-94
2022/05/06 10:39:18;;;;;;;0.10;0.10;;;;;;;;;;5079931;28;20625;-93
2022/05/06 10:42:03;;;;;;;0.20;0.20;;;;;;;;;;5060793;28;20044;-95
2022/05/06 10:44:38;;;;;;;0.20;0.20;;;;;;;;;;5077658;28;20050;-94
2022/05/06 10:47:16;;;;;;;0.20;0.20;;;;;;;;;;5077706;28;20094;-94
2022/05/06 10:49:50;;;;;;;0.10;0.10;;;;;;;;;;5077642;28;20072;-94
2022/05/06 10:52:20;;;;;;;0.30;0.30;;;;;;;;;;5077475;28;20055;-94
2022/05/06 10:54:50;;;;;;;0.20;0.20;;;;;;;;;;5094854;28;20047;-94
2022/05/06 10:57:16;;;;;;;0.20;0.20;;;;;;;;;;5060729;28;20127;-94
2022/05/06 10:59:52;;;;;;;0.10;0.10;;;;;;;;;;5060947;28;20040;-94
2022/05/06 11:02:22;;;;;;;0.20;0.20;;;;;;;;;;5077683;28;20060;-95
2022/05/06 11:04:55;;;;;;;0.20;0.20;;;;;;;;;;5060728;28;20143;-94
2022/05/06 11:07:21;;;;;;;0.20;0.20;;;;;;;;;;5060765;28;20069;-92
2022/05/06 11:09:52;;;;;;;0.10;0.10;;;;;;;;;;5060445;28;20127;-93
2022/05/06 11:12:30;;;;;;;0.10;0.10;;;;;;;;;;5094336;28;20032;-94
2022/05/06 11:14:57;;;;;;;0.10;0.10;;;;;;;;;;5060550;28;20032;-93
2022/05/06 11:17:25;;;;;;;0.10;0.10;;;;;;;;;;5077351;28;20043;-94
2022/05/06 11:19:51;;;;;;;0.10;0.10;;;;;;;;;;5060954;28;20036;-94
2022/05/06 11:22:17;;;;;;;0.20;0.20;;;;;;;;;;5060164;28;20051;-93
2022/05/06 11:24:46;;;;;;;0.20;0.20;;;;;;;;;;5060264;28;20044;-94
2022/05/06 11:27:15;;;;;;;0.10;0.10;;;;;;;;;;5060632;28;20574;-94
2022/05/06 11:29:51;;;;;;;0.10;0.10;;;;;;;;;;5059965;28;20037;-94
2022/05/06 11:32:17;;;;;;;0.20;0.20;;;;;;;;;;5060397;28;20131;-94
2022/05/06 11:34:55;;;;;;;0.10;0.10;;;;;;;;;;5060113;28;20051;-94
2022/05/06 11:37:24;;;;;;;0.20;0.20;;;;;;;;;;5060468;28;20055;-94
2022/05/06 11:39:50;;;;;;;0.10;0.10;;;;;;;;;;5060207;28;20465;-93
2022/05/06 11:42:20;;;;;;;0.10;0.10;;;;;;;;;;5060247;28;20036;-94
2022/05/06 11:48:06;;;;;;;0.10;0.10;;;;;;;;;;5044434;28;20052;-92
2022/05/06 11:50:33;;;;;;;0.10;0.10;;;;;;;;;;5038636;28;20093;-94
2022/05/06 11:52:59;;;;;;;0.20;0.20;;;;;;;;;;5040278;28;20047;-93
2022/05/06 11:55:26;;;;;;;0.20;0.20;;;;;;;;;;5059553;28;20056;-93
2022/05/06 11:58:01;;;;;;;0.10;0.10;;;;;;;;;;5077415;28;20312;-93
2022/05/06 12:00:27;;;;;;;0.20;0.20;;;;;;;;;;5059745;28;20054;-93
2022/05/06 12:02:53;;;;;;;0.20;0.20;;;;;;;;;;5059416;28;20056;-94
2022/05/06 12:05:19;;;;;;;0.10;0.10;;;;;;;;;;5059747;28;20089;-95
2022/05/06 12:07:49;;;;;;;0.20;0.20;;;;;;;;;;5060784;28;20040;-94
2022/05/06 12:10:25;;;;;;;0.20;0.20;;;;;;;;;;5062101;28;20036;-94
2022/05/06 12:12:57;;;;;;;0.10;0.10;;;;;;;;;;5079777;28;20378;-95
2022/05/06 12:15:30;;;;;;;0.20;0.20;;;;;;;;;;5082803;28;20087;-92
2022/05/06 12:18:03;;;;;;;0.10;0.10;;;;;;;;;;5098908;28;20048;-92
2022/05/06 12:20:39;;;;;;;0.10;0.10;;;;;;;;;;5066933;28;20044;-93
2022/05/06 12:23:06;;;;;;;0.10;0.10;;;;;;;;;;5062218;28;20511;-93
2022/05/06 12:25:35;;;;;;;0.35;0.35;;;;;;;;;;5080653;28;20067;-92
2022/05/06 12:28:07;;;;;;;0.10;0.10;;;;;;;;;;5081220;28;20065;-92
2022/05/06 12:30:34;;;;;;;0.10;0.10;;;;;;;;;;5077061;28;20047;-94
2022/05/06 12:33:07;;;;;;;0.10;0.10;;;;;;;;;;5058506;28;20047;-94
2022/05/06 12:35:44;;;;;;;0.10;0.10;;;;;;;;;;5059059;28;20039;-95
2022/05/06 12:38:10;;;;;;;0.10;0.10;;;;;;;;;;5058763;28;20051;-93
2022/05/06 12:40:36;;;;;;;0.10;0.10;;;;;;;;;;5075565;28;20046;-94
2022/05/06 12:43:06;;;;;;;0.20;0.20;;;;;;;;;;5058702;28;20036;-93
2022/05/06 12:45:32;;;;;;;0.10;0.10;;;;;;;;;;5059287;28;20281;-94
2022/05/06 12:50:42;;;;;;;0.10;0.10;;;;;;;;;;5078362;28;20129;-94
2022/05/06 12:53:10;;;;;;;0.10;0.10;;;;;;;;;;5058676;28;20044;-94
2022/05/06 12:55:37;;;;;;;0.10;0.10;;;;;;;;;;5058988;28;20039;-94
2022/05/06 12:58:03;;;;;;;0.10;0.10;;;;;;;;;;5058865;28;20067;-95
2022/05/06 13:00:29;;;;;;;0.10;0.10;;;;;;;;;;5058593;28;20043;-95
2022/05/06 13:02:56;;;;;;;0.10;0.10;;;;;;;;;;5075016;28;20056;-94
2022/05/06 13:05:22;;;;;;;0.10;0.10;;;;;;;;;;5058792;28;20036;-95
2022/05/06 13:07:48;;;;;;;0.10;0.10;;;;;;;;;;5075829;28;20040;-93
2022/05/06 13:10:14;;;;;;;0.10;0.10;;;;;;;;;;5058863;28;20372;-93
2022/05/06 13:12:40;;;;;;;0.10;0.10;;;;;;;;;;5058184;28;20082;-91
2022/05/06 13:15:07;;;;;;;0.20;0.20;;;;;;;;;;5075304;28;20056;-96
2022/05/06 13:17:33;;;;;;;0.10;0.10;;;;;;;;;;5060053;28;20040;-94
2022/05/06 13:19:59;;;;;;;0.10;0.10;;;;;;;;;;5075199;28;20364;-94
2022/05/06 13:22:25;;;;;;;0.10;0.10;;;;;;;;;;5058960;28;20441;-91
2022/05/06 13:24:51;;;;;;;0.10;0.10;;;;;;;;;;5074440;28;20052;-93
2022/05/06 13:27:17;;;;;;;0.10;0.10;;;;;;;;;;5057949;28;20036;-92
2022/05/06 13:29:44;;;;;;;0.10;0.10;;;;;;;;;;5058046;28;20196;-93
2022/05/06 13:32:10;;;;;;;0.10;0.10;;;;;;;;;;5058194;28;20535;-91
2022/05/06 13:34:35;;;;;;;0.10;0.10;;;;;;;;;;5058597;28;20129;-93
2022/05/06 13:37:03;;;;;;;0.10;0.10;;;;;;;;;;5074269;28;20380;-92
2022/05/06 13:39:29;;;;;;;0.10;0.10;;;;;;;;;;5057768;28;20139;-91
2022/05/06 13:41:55;;;;;;;0.10;0.10;;;;;;;;;;5057630;28;20075;-93
2022/05/06 13:44:21;;;;;;;0.20;0.20;;;;;;;;;;5057356;28;20059;-91
2022/05/06 13:46:48;;;;;;;0.10;0.10;;;;;;;;;;5076893;28;20040;-90
2022/05/06 13:49:14;;;;;;;0.10;0.10;;;;;;;;;;5061301;28;20039;-91
2022/05/06 13:51:40;;;;;;;0.20;0.20;;;;;;;;;;5061533;28;20036;-90
2022/05/06 13:54:06;;;;;;;0.20;0.20;;;;;;;;;;5077810;28;20484;-90
2022/05/06 13:59:17;;;;;;;0.25;0.25;;;;;;;;;;5094652;28;20426;-90
2022/05/06 14:01:44;;;;;;;0.20;0.20;;;;;;;;;;5077612;28;20039;-91
2022/05/06 14:04:11;;;;;;;0.10;0.10;;;;;;;;;;5060818;28;20399;-91
2022/05/06 14:06:37;;;;;;;0.10;0.10;;;;;;;;;;5078256;28;20051;-91
2022/05/06 14:09:03;;;;;;;0.10;0.10;;;;;;;;;;5077765;28;20028;-88
2022/05/06 14:11:30;;;;;;;0.10;0.10;;;;;;;;;;5077831;28;20039;-91
2022/05/06 14:13:56;;;;;;;0.10;0.10;;;;;;;;;;5061076;28;20036;-91
2022/05/06 14:16:25;;;;;;;0.13;0.13;;;;;;;;;;5061065;28;20043;-90
2022/05/06 14:18:51;;;;;;;0.10;0.10;;;;;;;;;;5060975;28;20047;-90
2022/05/06 14:21:17;;;;;;;0.10;0.10;;;;;;;;;;5060594;28;20040;-90
2022/05/06 14:23:43;;;;;;;0.10;0.10;;;;;;;;;;5060267;28;20036;-89
2022/05/06 14:26:09;;;;;;;0.10;0.10;;;;;;;;;;5060518;28;20166;-90
2022/05/06 14:28:35;;;;;;;0.10;0.10;;;;;;;;;;5077124;28;20499;-90
2022/05/06 14:31:01;;;;;;;0.10;0.10;;;;;;;;;;5077236;28;20039;-90
2022/05/06 14:33:27;;;;;;;0.10;0.10;;;;;;;;;;5077311;28;20153;-90
2022/05/06 14:35:54;;;;;;;0.10;0.10;;;;;;;;;;5060389;28;20209;-89
2022/05/06 14:38:20;;;;;;;0.10;0.10;;;;;;;;;;5060351;28;20076;-89
2022/05/06 14:40:46;;;;;;;0.20;0.20;;;;;;;;;;5077039;28;20075;-90
2022/05/06 14:43:13;;;;;;;0.20;0.20;;;;;;;;;;5059844;28;20047;-90
2022/05/06 14:45:39;;;;;;;0.10;0.10;;;;;;;;;;5076951;28;20075;-90
2022/05/06 14:48:05;;;;;;;0.10;0.10;;;;;;;;;;5060145;28;20043;-90
2022/05/06 14:50:31;;;;;;;0.20;0.20;;;;;;;;;;5076611;28;20038;-90
2022/05/06 14:52:57;;;;;;;0.10;0.10;;;;;;;;;;5060361;28;20040;-91
2022/05/06 14:55:24;;;;;;;0.10;0.10;;;;;;;;;;5058711;28;20050;-90
2022/05/06 14:57:51;;;;;;;0.10;0.10;;;;;;;;;;5059582;28;20048;-90
2022/05/06 15:00:17;;;;;;;0.10;0.10;;;;;;;;;;5059699;28;20048;-90
2022/05/06 15:02:43;;;;;;;0.10;0.10;;;;;;;;;;5075856;28;20091;-89
2022/05/06 15:05:09;;;;;;;0.25;0.25;;;;;;;;;;5059411;28;20044;-88
2022/05/06 15:07:35;;;;;;;0.10;0.10;;;;;;;;;;5076377;28;20136;-90
2022/05/06 15:10:02;;;;;;;0.10;0.10;;;;;;;;;;5059452;28;20036;-91
2022/05/06 15:12:28;;;;;;;0.10;0.10;;;;;;;;;;5076417;28;20044;-91
2022/05/06 15:14:55;;;;;;;0.10;0.10;;;;;;;;;;5059827;28;20043;-92
2022/05/06 15:17:21;;;;;;;0.10;0.10;;;;;;;;;;5059759;28;20126;-90
2022/05/06 15:19:47;;;;;;;0.20;0.20;;;;;;;;;;5076041;28;20079;-90
2022/05/06 15:22:15;;;;;;;0.10;0.10;;;;;;;;;;5076166;28;20407;-90
2022/05/06 15:24:41;;;;;;;0.10;0.10;;;;;;;;;;5075951;28;20461;-90
2022/05/06 15:27:07;;;;;;;0.10;0.10;;;;;;;;;;5059163;28;20040;-90
2022/05/06 15:29:33;;;;;;;0.10;0.10;;;;;;;;;;5059369;28;20403;-89
2022/05/06 15:31:59;;;;;;;0.10;0.10;;;;;;;;;;5059262;28;20047;-90
2022/05/06 15:34:26;;;;;;;0.10;0.10;;;;;;;;;;5059073;28;20044;-90